createdAt,value
2018-08-04T00:01:13.212Z,68.73
2018-08-04T00:03:44.677Z,69.21
2018-08-04T00:06:14.696Z,69.87
2018-08-04T00:08:46.641Z,70.40
2018-08-04T00:11:17.585Z,70.67
2018-08-04T00:13:48.945Z,70.73
2018-08-04T00:16:19.881Z,70.98
2018-08-04T00:18:50.966Z,70.79
2018-08-04T00:21:20.972Z,71.30
2018-08-04T00:23:53.000Z,71.15
2018-08-04T00:26:23.117Z,71.00
2018-08-04T00:28:53.848Z,70.59
2018-08-04T00:31:24.082Z,70.93
2018-08-04T00:33:54.501Z,71.26
2018-08-04T00:36:27.237Z,71.10
2018-08-04T00:38:57.449Z,71.47
2018-08-04T00:41:28.280Z,72.28
2018-08-04T00:44:01.481Z,72.00
2018-08-04T00:46:32.313Z,71.88
2018-08-04T00:49:02.277Z,71.31
2018-08-04T00:51:32.438Z,70.66
2018-08-04T00:54:02.258Z,70.55
2018-08-04T00:56:32.433Z,70.61
2018-08-04T00:59:02.290Z,71.30
2018-08-04T01:01:32.694Z,70.25
2018-08-04T01:04:02.580Z,70.33
2018-08-04T01:06:32.733Z,70.99
2018-08-04T01:09:02.628Z,70.86
2018-08-04T01:11:32.627Z,71.26
2018-08-04T01:14:02.510Z,70.65
2018-08-04T01:16:32.785Z,70.76
2018-08-04T01:19:02.663Z,70.72
2018-08-04T01:21:32.769Z,70.57
2018-08-04T01:24:02.686Z,70.98
2018-08-04T01:26:32.561Z,71.01
2018-08-04T01:29:02.445Z,71.51
2018-08-04T01:31:34.915Z,71.63
2018-08-04T01:34:04.831Z,71.83
2018-08-04T01:36:34.699Z,72.14
2018-08-04T01:39:05.981Z,72.06
2018-08-04T01:41:36.247Z,71.85
2018-08-04T01:44:06.171Z,70.84
2018-08-04T01:46:36.012Z,71.05
2018-08-04T01:49:06.613Z,72.13
2018-08-04T01:51:37.005Z,72.95
2018-08-04T01:54:06.957Z,73.49
2018-08-04T01:56:37.680Z,73.95
2018-08-04T01:59:07.808Z,73.34
2018-08-04T02:01:38.233Z,72.70
2018-08-04T02:04:08.143Z,72.34
2018-08-04T02:06:38.692Z,71.62
2018-08-04T02:09:10.118Z,71.33
2018-08-04T02:11:40.080Z,72.22
2018-08-04T02:14:11.667Z,72.17
2018-08-04T02:16:42.169Z,73.00
2018-08-04T02:19:12.906Z,73.14
2018-08-04T02:21:43.193Z,72.54
2018-08-04T02:24:13.121Z,71.53
2018-08-04T02:26:43.034Z,70.89
2018-08-04T02:29:13.052Z,71.47
2018-08-04T02:31:46.631Z,72.04
2018-08-04T02:34:17.141Z,72.76
2018-08-04T02:36:47.303Z,73.41
2018-08-04T02:39:17.350Z,74.17
2018-08-04T02:41:48.505Z,74.45
2018-08-04T02:44:18.693Z,74.33
2018-08-04T02:46:48.593Z,74.77
2018-08-04T02:49:18.574Z,74.45
2018-08-04T02:51:48.423Z,74.48
2018-08-04T02:54:18.381Z,74.36
2018-08-04T02:56:48.465Z,74.26
2018-08-04T02:59:18.399Z,73.93
2018-08-04T03:01:48.647Z,74.09
2018-08-04T03:04:26.661Z,73.65
2018-08-04T03:06:56.478Z,73.65
2018-08-04T03:09:26.342Z,73.63
2018-08-04T03:11:58.086Z,73.74
2018-08-04T03:14:32.206Z,73.96
2018-08-04T03:17:02.114Z,74.41
2018-08-04T03:19:32.383Z,74.99
2018-08-04T03:22:02.478Z,75.80
2018-08-04T03:24:32.292Z,75.77
2018-08-04T03:27:02.098Z,76.51
2018-08-04T03:29:43.459Z,76.39
2018-08-04T03:32:13.048Z,76.77
2018-08-04T03:34:42.671Z,76.35
2018-08-04T03:37:12.661Z,76.71
2018-08-04T03:39:42.403Z,77.08
2018-08-04T03:42:12.383Z,77.11
2018-08-04T03:44:41.999Z,77.10
2018-08-04T03:47:13.034Z,77.32
2018-08-04T03:49:42.701Z,77.01
2018-08-04T03:52:12.849Z,77.00
2018-08-04T03:54:42.553Z,76.73
2018-08-04T03:57:13.474Z,76.78
2018-08-04T03:59:43.244Z,76.79
2018-08-04T04:02:13.040Z,76.81
2018-08-04T04:04:42.775Z,77.17
2018-08-04T04:07:12.486Z,77.21
2018-08-04T04:09:42.317Z,77.51
2018-08-04T04:12:12.410Z,78.05
2018-08-04T04:14:42.167Z,77.66
2018-08-04T04:17:12.378Z,78.19
2018-08-04T04:19:42.027Z,77.94
2018-08-04T04:22:12.015Z,78.18
2018-08-04T04:24:41.819Z,77.93
2018-08-04T04:27:11.521Z,78.05
2018-08-04T04:29:41.316Z,77.79
2018-08-04T04:32:12.016Z,77.99
2018-08-04T04:34:41.673Z,77.76
2018-08-04T04:37:11.464Z,77.75
2018-08-04T04:39:41.776Z,77.75
2018-08-04T04:42:11.486Z,77.12
2018-08-04T04:44:41.296Z,77.15
2018-08-04T04:47:11.144Z,77.43
2018-08-04T04:49:41.134Z,77.00
2018-08-04T04:52:11.690Z,76.68
2018-08-04T04:54:42.031Z,77.15
2018-08-04T04:57:12.954Z,77.14
2018-08-04T04:59:42.888Z,77.04
2018-08-04T05:02:12.621Z,75.85
2018-08-04T05:04:42.802Z,75.72
2018-08-04T05:07:12.532Z,74.91
2018-08-04T05:09:43.760Z,74.85
2018-08-04T05:12:13.911Z,75.10
2018-08-04T05:14:43.689Z,74.61
2018-08-04T05:17:13.809Z,74.73
2018-08-04T05:19:43.896Z,75.09
2018-08-04T05:22:13.770Z,75.22
2018-08-04T05:24:43.882Z,74.63
2018-08-04T05:27:13.611Z,74.70
2018-08-04T05:29:43.563Z,74.13
2018-08-04T05:32:13.914Z,73.38
2018-08-04T05:34:45.679Z,73.09
2018-08-04T05:37:15.414Z,72.78
2018-08-04T05:39:45.064Z,72.86
2018-08-04T05:42:15.164Z,72.64
2018-08-04T05:44:45.348Z,72.28
2018-08-04T05:47:15.379Z,71.50
2018-08-04T05:49:45.227Z,70.66
2018-08-04T05:52:14.987Z,70.10
2018-08-04T05:54:44.710Z,70.46
2018-08-04T05:57:14.629Z,70.64
2018-08-04T05:59:45.887Z,69.99
2018-08-04T06:02:16.700Z,69.89
2018-08-04T06:04:46.608Z,69.33
2018-08-04T06:07:19.906Z,69.25
2018-08-04T06:09:49.620Z,68.78
2018-08-04T06:12:19.388Z,69.12
2018-08-04T06:14:49.145Z,68.70
2018-08-04T06:17:19.010Z,68.84
2018-08-04T06:19:48.761Z,67.58
2018-08-04T06:22:19.807Z,67.50
2018-08-04T06:24:49.990Z,66.61
2018-08-04T06:27:19.747Z,66.43
2018-08-04T06:29:49.478Z,66.08
2018-08-04T06:32:19.476Z,65.51
2018-08-04T06:34:49.182Z,64.05
2018-08-04T06:37:19.878Z,63.78
2018-08-04T06:39:49.777Z,62.12
2018-08-04T06:42:20.272Z,61.66
2018-08-04T06:44:49.989Z,60.17
2018-08-04T06:47:19.756Z,59.51
2018-08-04T06:49:53.989Z,60.36
2018-08-04T06:52:23.633Z,60.21
2018-08-04T06:54:53.325Z,60.56
2018-08-04T06:57:23.022Z,58.87
2018-08-04T06:59:53.015Z,58.23
2018-08-04T07:02:23.069Z,58.51
2018-08-04T07:04:52.866Z,58.56
2018-08-04T07:07:22.687Z,56.50
2018-08-04T07:09:52.906Z,54.41
2018-08-04T07:12:22.616Z,56.02
2018-08-04T07:14:52.642Z,54.88
2018-08-04T07:17:22.482Z,54.80
2018-08-04T07:19:52.361Z,53.68
2018-08-04T07:22:22.823Z,53.95
2018-08-04T07:24:53.708Z,53.59
2018-08-04T07:27:24.709Z,52.68
2018-08-04T07:29:55.523Z,52.94
2018-08-04T07:32:25.351Z,51.83
2018-08-04T07:34:55.123Z,51.40
2018-08-04T07:37:25.141Z,52.26
2018-08-04T07:39:54.967Z,52.30
2018-08-04T07:42:25.411Z,50.50
2018-08-04T07:44:55.599Z,50.97
2018-08-04T07:47:25.345Z,50.08
2018-08-04T07:49:55.547Z,48.93
2018-08-04T07:52:27.127Z,48.56
2018-08-04T07:54:57.075Z,48.82
2018-08-04T07:57:26.772Z,48.40
2018-08-04T07:59:56.768Z,48.58
2018-08-04T08:02:29.047Z,47.53
2018-08-04T08:04:59.521Z,48.41
2018-08-04T08:07:29.887Z,47.52
2018-08-04T08:09:59.808Z,46.41
2018-08-04T08:12:29.588Z,47.79
2018-08-04T08:14:59.643Z,47.30
2018-08-04T08:17:29.920Z,46.81
2018-08-04T08:19:59.750Z,45.84
2018-08-04T08:22:44.705Z,46.01
2018-08-04T08:25:14.755Z,45.55
2018-08-04T08:27:45.048Z,44.39
2018-08-04T08:30:16.511Z,43.00
2018-08-04T08:32:47.257Z,42.05
2018-08-04T08:35:17.840Z,40.00
2018-08-04T08:37:47.903Z,37.53
2018-08-04T08:40:18.766Z,37.03
2018-08-04T08:42:48.774Z,36.95
2018-08-04T08:45:19.794Z,35.67
2018-08-04T08:47:50.941Z,34.98
2018-08-04T08:50:22.892Z,35.15
2018-08-04T08:52:58.077Z,35.40
2018-08-04T08:55:28.651Z,32.35
2018-08-04T08:57:58.959Z,32.43
2018-08-04T09:00:34.624Z,31.84
2018-08-04T09:03:04.412Z,32.71
2018-08-04T09:05:34.379Z,31.86
2018-08-04T09:08:04.126Z,31.22
2018-08-04T09:10:34.118Z,31.65
2018-08-04T09:13:03.813Z,30.82
2018-08-04T09:15:34.210Z,29.30
2018-08-04T09:18:03.871Z,28.55
2018-08-04T09:20:34.462Z,28.14
2018-08-04T09:23:04.219Z,27.64
2018-08-04T09:25:35.196Z,29.22
2018-08-04T09:28:04.913Z,28.67
2018-08-04T09:30:34.724Z,27.53
2018-08-04T09:36:02.980Z,27.00
2018-08-04T09:38:33.713Z,25.84
2018-08-04T09:41:03.566Z,27.16
2018-08-04T09:43:33.408Z,25.51
2018-08-04T09:46:10.809Z,24.70
2018-08-04T09:48:40.721Z,25.85
2018-08-04T09:51:11.117Z,25.31
2018-08-04T09:53:41.409Z,25.46
2018-08-04T09:56:15.964Z,23.06
2018-08-04T09:58:45.647Z,22.98
2018-08-04T10:01:38.167Z,25.54
2018-08-04T10:04:08.577Z,23.84
2018-08-04T10:06:38.682Z,23.62
2018-08-04T10:09:12.435Z,24.10
2018-08-04T10:11:42.931Z,23.22
2018-08-04T10:14:12.710Z,24.05
2018-08-04T10:16:44.055Z,23.89
2018-08-04T10:19:15.734Z,22.59
2018-08-04T10:21:45.927Z,23.06
2018-08-04T10:24:15.679Z,23.71
2018-08-04T10:26:45.468Z,24.18
2018-08-04T10:29:17.308Z,25.90
2018-08-04T10:31:47.418Z,26.67
2018-08-04T10:34:17.148Z,28.92
2018-08-04T10:36:48.242Z,27.72
2018-08-04T10:39:18.095Z,27.63
2018-08-04T10:41:49.076Z,27.03
2018-08-04T10:44:18.777Z,29.16
2018-08-04T10:46:48.496Z,28.31
2018-08-04T10:49:18.510Z,28.14
2018-08-04T10:51:56.647Z,26.55
2018-08-04T10:54:26.883Z,26.50
2018-08-04T10:57:25.733Z,26.77
2018-08-04T11:06:16.118Z,25.53
2018-08-04T11:08:45.984Z,25.88
2018-08-04T11:11:15.782Z,25.38
2018-08-04T11:13:46.094Z,24.73
2018-08-04T11:16:17.567Z,24.33
2018-08-04T11:18:47.334Z,23.07
2018-08-04T11:21:19.349Z,22.17
2018-08-04T11:23:49.026Z,22.28
2018-08-04T11:26:19.624Z,23.86
2018-08-04T11:28:49.263Z,23.43
2018-08-04T11:31:19.186Z,23.11
2018-08-04T11:33:49.088Z,21.91
2018-08-04T11:39:47.194Z,21.03
2018-08-04T11:45:30.624Z,22.63
2018-08-04T11:48:00.756Z,21.62
2018-08-04T11:50:55.880Z,22.35
2018-08-04T11:53:28.734Z,22.93
2018-08-04T11:55:58.770Z,22.85
2018-08-04T11:58:38.616Z,22.32
2018-08-04T12:01:09.887Z,23.28
2018-08-04T12:03:40.861Z,23.41
2018-08-04T12:06:15.689Z,22.27
2018-08-04T12:08:45.801Z,22.80
2018-08-04T12:11:15.927Z,24.75
2018-08-04T12:13:46.338Z,23.98
2018-08-04T12:16:22.992Z,25.57
2018-08-04T12:18:53.981Z,25.15
2018-08-04T12:21:25.202Z,25.06
2018-08-04T12:23:56.708Z,24.79
2018-08-04T12:26:28.353Z,24.36
2018-08-04T12:28:58.623Z,24.74
2018-08-04T12:31:28.581Z,23.82
2018-08-04T12:34:06.912Z,24.28
2018-08-04T12:36:37.046Z,23.54
2018-08-04T12:39:09.787Z,23.74
2018-08-04T12:41:39.892Z,23.91
2018-08-04T12:44:10.423Z,24.38
2018-08-04T12:46:41.360Z,23.11
2018-08-04T12:49:11.505Z,22.83
2018-08-04T12:51:41.526Z,22.68
2018-08-04T12:54:11.862Z,22.58
2018-08-04T12:56:43.909Z,22.45
2018-08-04T12:59:13.723Z,22.57
2018-08-04T13:01:43.601Z,24.30
2018-08-04T13:04:13.789Z,22.67
2018-08-04T13:06:43.554Z,20.34
2018-08-04T13:09:13.272Z,21.71
2018-08-04T13:11:43.211Z,23.10
2018-08-04T13:14:12.947Z,22.51
2018-08-04T13:16:43.632Z,21.66
2018-08-04T13:19:13.495Z,18.40
2018-08-04T13:21:44.189Z,20.07
2018-08-04T13:24:14.047Z,19.10
2018-08-04T13:26:43.831Z,18.46
2018-08-04T13:32:36.152Z,16.02
2018-08-04T13:35:06.623Z,16.16
2018-08-04T13:37:37.583Z,16.26
2018-08-04T13:40:40.454Z,17.52
2018-08-04T13:43:12.109Z,17.61
2018-08-04T13:45:42.157Z,15.68
2018-08-04T13:48:11.832Z,13.91
2018-08-04T13:50:41.671Z,13.50
2018-08-04T13:53:11.655Z,13.03
2018-08-04T13:55:41.452Z,14.49
2018-08-04T13:58:11.311Z,15.51
2018-08-04T14:01:01.954Z,17.94
2018-08-04T14:03:32.079Z,17.93
2018-08-04T14:06:03.110Z,16.56
2018-08-04T14:08:32.778Z,17.78
2018-08-04T14:13:50.108Z,16.63
2018-08-04T14:16:24.096Z,17.03
2018-08-04T14:19:03.237Z,17.38
2018-08-04T14:21:36.232Z,16.57
2018-08-04T14:24:07.062Z,17.81
2018-08-04T14:26:55.759Z,19.20
2018-08-04T14:29:27.998Z,20.80
2018-08-04T14:34:32.776Z,18.02
2018-08-04T14:37:37.203Z,16.53
2018-08-04T14:40:07.480Z,14.86
2018-08-04T14:42:37.712Z,15.25
2018-08-04T14:45:31.111Z,14.52
2018-08-04T14:48:00.824Z,14.17
2018-08-04T14:50:31.202Z,14.08
2018-08-04T14:53:01.657Z,13.66
2018-08-04T14:55:33.885Z,13.80
2018-08-04T15:01:34.624Z,13.83
2018-08-04T15:04:15.426Z,13.98
2018-08-04T15:06:45.751Z,13.97
2018-08-04T15:12:19.224Z,16.16
2018-08-04T15:18:00.497Z,15.50
2018-08-04T15:20:30.673Z,15.79
2018-08-04T15:23:00.515Z,15.58
2018-08-04T15:25:30.430Z,15.10
2018-08-04T15:28:00.298Z,15.24
2018-08-04T15:30:30.600Z,15.73
2018-08-04T15:33:19.554Z,16.07
2018-08-04T15:35:51.481Z,15.97
2018-08-04T15:42:09.683Z,17.52
2018-08-04T15:45:03.336Z,15.81
2018-08-04T15:50:40.570Z,16.19
2018-08-04T15:53:14.673Z,16.33
2018-08-04T15:55:45.895Z,16.52
2018-08-04T15:58:15.812Z,16.73
2018-08-04T16:00:48.111Z,19.24
2018-08-04T16:03:17.909Z,18.36
2018-08-04T16:05:48.018Z,20.49
2018-08-04T16:08:18.104Z,22.46
2018-08-04T16:13:43.469Z,25.03
2018-08-04T16:16:13.500Z,25.51
2018-08-04T16:18:43.241Z,26.69
2018-08-04T16:21:13.015Z,26.74
2018-08-04T16:23:43.020Z,27.03
2018-08-04T16:26:12.759Z,27.39
2018-08-04T16:28:43.333Z,27.55
2018-08-04T16:31:14.585Z,26.80
2018-08-04T16:33:44.428Z,27.37
2018-08-04T16:36:14.209Z,26.23
2018-08-04T16:38:52.363Z,26.41
2018-08-04T16:41:23.284Z,26.32
2018-08-04T16:46:33.903Z,26.98
2018-08-04T16:49:13.392Z,27.52
2018-08-04T16:54:42.435Z,27.37
2018-08-04T16:57:22.988Z,26.90
2018-08-04T17:00:09.187Z,27.49
2018-08-04T17:02:55.240Z,27.68
2018-08-04T17:05:45.984Z,28.33
2018-08-04T17:08:44.294Z,29.02
2018-08-04T17:11:33.692Z,28.17
2018-08-04T17:14:09.469Z,28.25
2018-08-04T17:16:40.604Z,28.57
2018-08-04T17:19:12.348Z,28.23
2018-08-04T17:22:00.989Z,28.52
2018-08-04T17:24:48.566Z,29.09
2018-08-04T17:27:19.425Z,29.38
2018-08-04T17:33:12.332Z,29.55
2018-08-04T17:38:56.554Z,31.12
2018-08-04T17:46:08.149Z,29.87
2018-08-04T17:48:39.345Z,31.17
2018-08-04T17:51:10.203Z,31.34
2018-08-04T17:53:40.180Z,31.34
2018-08-04T17:56:18.887Z,31.96
2018-08-04T17:59:01.537Z,30.17
2018-08-04T18:01:31.501Z,30.67
2018-08-04T18:04:11.668Z,30.95
2018-08-04T18:06:42.268Z,31.33
2018-08-04T18:09:26.050Z,31.53
2018-08-04T18:12:00.197Z,30.46
2018-08-04T18:14:41.673Z,31.74
2018-08-04T18:17:13.187Z,31.63
2018-08-04T18:19:46.665Z,32.25
2018-08-04T18:22:34.625Z,32.29
2018-08-04T18:25:05.194Z,32.54
